Time;durP1;ratioP1;P1;durP2;ratioP2;P2;SDS_P1;SDS_P2;PMS_P1;PMS_P2;Temp;Humidity;BMP_temperature;BMP_pressure;BME280_temperature;BME280_humidity;BME280_pressure;Samples;Min_cycle;Max_cycle;Signal;HPM_P1;HPM_P2
2023/01/19 00:01:23;;;;;;;40.33;19.42;;;2.80;95.50;;;;;;5071371;28;20033;-74
2023/01/19 00:03:49;;;;;;;38.85;19.25;;;2.80;95.40;;;;;;5071540;28;20071;-73
2023/01/19 00:06:15;;;;;;;38.03;19.30;;;2.90;94.00;;;;;;5070870;28;20502;-72
2023/01/19 00:08:43;;;;;;;43.17;20.52;;;3.00;93.60;;;;;;5071447;28;20017;-74
2023/01/19 00:11:09;;;;;;;45.72;19.27;;;3.00;91.50;;;;;;5071380;28;20028;-73
2023/01/19 00:13:35;;;;;;;39.30;19.25;;;3.00;90.00;;;;;;5071352;28;20023;-73
2023/01/19 00:16:01;;;;;;;35.22;18.35;;;3.00;89.70;;;;;;5070794;28;20067;-73
2023/01/19 00:18:27;;;;;;;35.92;18.35;;;3.00;90.00;;;;;;5071525;28;20082;-72
2023/01/19 00:20:52;;;;;;;40.47;19.20;;;3.00;90.10;;;;;;5071261;28;20024;-74
2023/01/19 00:23:19;;;;;;;43.65;19.98;;;3.10;87.70;;;;;;5055626;28;20020;-73
2023/01/19 00:25:46;;;;;;;42.60;19.02;;;3.00;88.00;;;;;;5074372;28;20028;-73
2023/01/19 00:28:13;;;;;;;38.65;18.23;;;3.10;85.50;;;;;;5074933;28;20029;-73
2023/01/19 00:30:40;;;;;;;36.78;19.08;;;3.10;87.40;;;;;;5075209;28;20075;-73
2023/01/19 00:33:06;;;;;;;43.65;19.17;;;3.00;86.30;;;;;;5075251;28;20039;-73
2023/01/19 00:35:33;;;;;;;39.42;19.92;;;3.00;85.70;;;;;;5074410;28;20428;-73
2023/01/19 00:37:59;;;;;;;44.90;20.10;;;3.00;86.70;;;;;;5074792;28;20028;-73
2023/01/19 00:40:25;;;;;;;58.08;20.48;;;3.10;86.30;;;;;;5074789;28;20024;-72
2023/01/19 00:42:50;;;;;;;38.20;18.63;;;3.10;82.30;;;;;;5075090;28;20501;-74
2023/01/19 00:45:18;;;;;;;41.10;19.92;;;3.10;80.90;;;;;;5074758;28;20033;-73
2023/01/19 00:47:45;;;;;;;38.85;19.05;;;3.10;82.10;;;;;;5074332;28;20029;-73
2023/01/19 00:50:11;;;;;;;40.50;18.90;;;3.00;82.60;;;;;;5074665;28;20017;-73
2023/01/19 00:52:38;;;;;;;35.45;18.70;;;3.10;85.70;;;;;;5074487;28;20052;-73
2023/01/19 00:55:04;;;;;;;35.47;18.70;;;3.10;81.60;;;;;;5074392;28;20470;-73
2023/01/19 00:57:30;;;;;;;36.30;19.27;;;3.10;83.50;;;;;;5073925;28;20105;-73
2023/01/19 00:59:55;;;;;;;43.03;19.02;;;3.10;81.80;;;;;;5074589;28;20072;-73
2023/01/19 01:02:21;;;;;;;43.53;20.63;;;3.10;82.40;;;;;;5072120;28;20355;-73
2023/01/19 01:04:46;;;;;;;49.45;19.98;;;3.10;83.50;;;;;;5073827;28;20099;-73
2023/01/19 01:07:12;;;;;;;39.72;20.30;;;3.10;81.00;;;;;;5072821;28;20500;-74
2023/01/19 01:09:37;;;;;;;37.92;19.08;;;3.10;81.80;;;;;;5074257;28;20036;-73
2023/01/19 01:12:03;;;;;;;41.78;19.33;;;3.10;82.90;;;;;;5074176;28;20096;-73
2023/01/19 01:14:29;;;;;;;40.85;19.05;;;3.10;85.70;;;;;;5074257;28;20021;-74
2023/01/19 01:16:54;;;;;;;45.70;19.55;;;3.30;80.70;;;;;;5073499;28;20032;-73
2023/01/19 01:19:20;;;;;;;43.70;18.98;;;3.30;79.60;;;;;;5074175;28;20387;-72
2023/01/19 01:21:45;;;;;;;48.15;19.50;;;3.20;77.80;;;;;;5074068;28;20056;-73
2023/01/19 01:24:11;;;;;;;42.97;18.67;;;3.20;80.80;;;;;;5074037;28;20028;-73
2023/01/19 01:26:37;;;;;;;41.05;20.83;;;3.20;81.60;;;;;;5073434;28;20024;-73
2023/01/19 01:29:04;;;;;;;46.38;19.38;;;3.20;81.70;;;;;;5074063;28;20056;-73
2023/01/19 01:31:30;;;;;;;36.85;19.15;;;3.20;81.70;;;;;;5074190;28;20099;-73
2023/01/19 01:33:56;;;;;;;39.40;20.70;;;3.10;84.10;;;;;;5073622;28;20566;-72
2023/01/19 01:36:21;;;;;;;39.08;19.83;;;3.10;84.10;;;;;;5073321;28;20036;-73
2023/01/19 01:38:47;;;;;;;50.95;20.67;;;3.20;86.90;;;;;;5073824;28;20448;-73
2023/01/19 01:41:12;;;;;;;42.17;19.58;;;3.10;85.60;;;;;;5074240;28;20035;-74
2023/01/19 01:43:52;;;;;;;46.13;19.92;;;3.20;84.30;;;;;;5074031;28;20107;-73
2023/01/19 01:46:18;;;;;;;48.85;19.42;;;3.20;86.30;;;;;;5072929;28;20024;-73
2023/01/19 01:48:53;;;;;;;44.67;19.80;;;3.20;83.20;;;;;;5073813;28;20378;-73
2023/01/19 01:51:28;;;;;;;;;;;3.20;85.60;;;;;;5073963;28;20107;-73
2023/01/19 01:54:06;;;;;;;34.45;18.23;;;3.30;83.80;;;;;;5073568;28;19908;-74
2023/01/19 01:56:37;;;;;;;45.10;19.42;;;3.30;82.20;;;;;;5072886;28;20074;-74
2023/01/19 01:59:08;;;;;;;38.92;19.27;;;3.30;79.40;;;;;;5073498;28;20027;-73
2023/01/19 02:04:18;;;;;;;36.90;19.55;;;3.30;83.10;;;;;;5073687;28;20032;-73
2023/01/19 02:15:00;;;;;;;;;;;3.30;82.20;;;;;;5072164;28;20078;-73
2023/01/19 02:17:25;;;;;;;37.85;18.80;;;3.40;82.80;;;;;;5072431;28;19908;-73
2023/01/19 02:19:51;;;;;;;36.22;17.58;;;3.30;85.60;;;;;;5072939;28;20079;-73
2023/01/19 02:22:46;;;;;;;41.33;18.65;;;3.30;85.20;;;;;;5073004;28;20496;-72
2023/01/19 02:25:12;;;;;;;45.22;20.10;;;3.40;82.10;;;;;;5051368;28;20390;-73
2023/01/19 02:27:38;;;;;;;41.67;19.02;;;3.30;83.40;;;;;;5072223;28;20020;-73
2023/01/19 02:30:04;;;;;;;39.63;17.83;;;3.30;84.20;;;;;;5072816;28;20024;-73
2023/01/19 02:32:30;;;;;;;38.53;18.85;;;3.40;85.60;;;;;;5072544;28;20071;-74
2023/01/19 02:34:56;;;;;;;42.63;18.42;;;3.40;82.90;;;;;;5072655;28;20060;-73
2023/01/19 02:37:22;;;;;;;33.10;17.50;;;3.40;84.40;;;;;;5071926;28;20028;-72
2023/01/19 02:39:56;;;;;;;39.15;18.17;;;3.40;82.80;;;;;;5072561;28;20052;-71
2023/01/19 02:42:33;;;;;;;26.92;13.57;;;3.30;84.40;;;;;;5072511;28;20020;-72
2023/01/19 02:44:59;;;;;;;37.78;18.98;;;3.30;88.00;;;;;;5071621;28;20096;-73
2023/01/19 02:47:25;;;;;;;40.25;18.45;;;3.30;89.90;;;;;;5071882;28;20509;-73
2023/01/19 02:49:56;;;;;;;39.63;20.02;;;3.30;88.50;;;;;;5072420;28;20386;-73
2023/01/19 02:52:22;;;;;;;42.42;19.00;;;3.30;90.00;;;;;;5072160;28;20036;-72
2023/01/19 02:55:15;;;;;;;43.63;18.90;;;3.30;90.00;;;;;;5072376;28;20025;-71
2023/01/19 02:58:10;;;;;;;38.58;19.38;;;3.30;90.90;;;;;;5072175;28;20048;-72
2023/01/19 03:00:51;;;;;;;33.80;18.30;;;3.40;90.70;;;;;;5072324;28;20390;-73
2023/01/19 03:03:35;;;;;;;37.55;18.90;;;3.40;90.70;;;;;;5070535;28;20027;-73
2023/01/19 03:06:07;;;;;;;32.13;17.63;;;3.50;91.60;;;;;;5071551;28;20130;-73
2023/01/19 03:08:54;;;;;;;42.65;18.95;;;3.50;91.00;;;;;;5072193;28;20631;-76
2023/01/19 03:11:22;;;;;;;41.13;19.85;;;3.50;90.20;;;;;;5072131;28;20025;-74
2023/01/19 03:14:02;;;;;;;34.13;18.45;;;3.60;87.40;;;;;;5071867;28;20029;-73
2023/01/19 03:16:41;;;;;;;39.13;18.98;;;3.50;89.00;;;;;;5071241;28;20016;-73
2023/01/19 03:19:35;;;;;;;37.00;18.95;;;3.50;90.50;;;;;;5071905;28;20034;-73
2023/01/19 03:22:07;;;;;;;33.35;18.25;;;3.40;90.90;;;;;;5071682;28;20421;-73
2023/01/19 03:24:38;;;;;;;39.10;18.55;;;3.50;91.50;;;;;;5071676;28;20220;-73
2023/01/19 03:27:10;;;;;;;38.70;19.77;;;3.50;91.70;;;;;;5070860;28;20029;-72
2023/01/19 03:29:40;;;;;;;45.50;19.45;;;3.60;92.10;;;;;;5071772;28;20036;-73
2023/01/19 03:32:11;;;;;;;41.22;18.77;;;3.50;91.10;;;;;;5071575;28;20028;-72
2023/01/19 03:34:37;;;;;;;37.20;18.63;;;3.60;91.10;;;;;;5072087;28;20120;-73
2023/01/19 03:37:06;;;;;;;35.85;19.15;;;3.50;90.80;;;;;;5070779;28;20036;-74
2023/01/19 03:39:32;;;;;;;36.13;18.85;;;3.50;92.20;;;;;;5071570;28;20086;-73
2023/01/19 03:42:05;;;;;;;34.72;20.10;;;3.40;92.70;;;;;;5071516;28;20028;-72
2023/01/19 03:44:33;;;;;;;36.13;20.38;;;3.40;93.40;;;;;;5071721;28;20027;-72
2023/01/19 03:47:00;;;;;;;39.63;20.23;;;3.50;93.00;;;;;;5070536;28;20489;-73
2023/01/19 03:49:29;;;;;;;34.35;19.10;;;3.50;92.90;;;;;;5071349;28;20029;-72
2023/01/19 03:51:57;;;;;;;41.53;20.23;;;3.50;92.70;;;;;;5071273;28;20494;-72
2023/01/19 03:54:23;;;;;;;35.35;19.92;;;3.50;94.60;;;;;;5071714;28;20025;-72
2023/01/19 03:56:48;;;;;;;37.97;20.08;;;3.50;95.50;;;;;;5072210;28;20093;-72
2023/01/19 03:59:16;;;;;;;40.25;20.73;;;3.60;94.40;;;;;;5075388;28;20029;-72
2023/01/19 04:01:42;;;;;;;41.80;19.45;;;3.60;94.90;;;;;;5075392;28;20048;-72
2023/01/19 04:04:07;;;;;;;39.90;19.63;;;3.60;95.90;;;;;;5075406;28;20060;-73
2023/01/19 04:06:33;;;;;;;36.33;19.85;;;3.60;95.90;;;;;;5074417;28;20024;-74
2023/01/19 04:08:58;;;;;;;39.85;19.90;;;3.60;96.20;;;;;;5075174;28;20024;-71
2023/01/19 04:11:24;;;;;;;36.90;19.63;;;3.50;96.60;;;;;;5075038;28;20024;-71
2023/01/19 04:13:50;;;;;;;38.88;20.42;;;3.50;98.10;;;;;;5073918;28;20021;-75
2023/01/19 04:16:19;;;;;;;40.67;20.40;;;3.60;97.70;;;;;;5074814;28;20074;-75
2023/01/19 04:18:44;;;;;;;36.20;19.80;;;3.60;97.40;;;;;;5075224;28;20060;-75
2023/01/19 04:21:10;;;;;;;39.40;21.55;;;3.60;97.90;;;;;;5075186;28;20025;-74
2023/01/19 04:23:36;;;;;;;35.97;19.30;;;3.60;97.40;;;;;;5076074;28;20025;-76
2023/01/19 04:26:04;;;;;;;38.03;20.47;;;3.60;98.50;;;;;;5057936;28;20482;-78
2023/01/19 04:28:31;;;;;;;41.72;21.42;;;3.60;98.30;;;;;;5076577;28;20240;-78
2023/01/19 04:30:57;;;;;;;37.42;20.98;;;3.60;98.30;;;;;;5075836;28;20063;-76
2023/01/19 04:33:23;;;;;;;42.17;22.17;;;3.60;98.60;;;;;;5075014;28;20652;-74
2023/01/19 04:35:50;;;;;;;43.15;23.23;;;3.70;98.70;;;;;;5074237;28;20021;-73
2023/01/19 04:38:16;;;;;;;43.15;23.65;;;3.50;99.70;;;;;;5074856;28;20095;-73
2023/01/19 04:40:41;;;;;;;41.65;23.45;;;3.60;99.90;;;;;;5074581;28;20104;-73
2023/01/19 04:43:07;;;;;;;44.25;23.48;;;3.60;99.90;;;;;;5074691;28;20127;-73
2023/01/19 04:45:33;;;;;;;42.47;24.13;;;3.60;99.90;;;;;;5073860;28;20090;-72
2023/01/19 04:47:58;;;;;;;49.78;25.55;;;3.60;99.90;;;;;;5074222;28;20029;-73
2023/01/19 04:50:24;;;;;;;44.85;24.70;;;3.60;99.90;;;;;;5074669;28;20094;-75
2023/01/19 04:52:50;;;;;;;42.28;24.73;;;3.60;99.90;;;;;;5076071;28;20025;-77
2023/01/19 04:55:16;;;;;;;43.30;23.92;;;3.50;99.90;;;;;;5074799;28;20026;-72
2023/01/19 04:57:42;;;;;;;45.05;23.80;;;3.60;99.90;;;;;;5074587;28;20085;-73
2023/01/19 05:00:08;;;;;;;42.80;24.17;;;3.50;99.90;;;;;;5074975;28;20029;-73
2023/01/19 05:02:34;;;;;;;43.42;24.20;;;3.50;99.90;;;;;;5074450;28;20031;-73
2023/01/19 05:05:01;;;;;;;44.72;23.30;;;3.60;99.90;;;;;;5073994;28;20028;-73
2023/01/19 05:07:26;;;;;;;45.00;24.02;;;3.70;99.90;;;;;;5073920;28;20054;-76
2023/01/19 05:09:52;;;;;;;38.65;22.65;;;3.60;99.90;;;;;;5073727;28;20020;-75
2023/01/19 05:12:18;;;;;;;45.30;23.08;;;3.70;99.90;;;;;;5074986;28;20491;-75
2023/01/19 05:14:44;;;;;;;42.17;22.65;;;3.70;99.90;;;;;;5075250;28;20070;-77
2023/01/19 05:17:10;;;;;;;43.47;23.65;;;3.70;99.90;;;;;;5078214;28;20055;-76
2023/01/19 05:19:35;;;;;;;41.67;23.95;;;3.60;99.90;;;;;;5075436;28;20033;-76
2023/01/19 05:22:02;;;;;;;38.55;23.42;;;3.70;99.90;;;;;;5074342;28;20090;-76
2023/01/19 05:24:28;;;;;;;46.10;23.73;;;3.70;99.90;;;;;;5075162;28;20051;-76
2023/01/19 05:26:54;;;;;;;44.65;23.40;;;3.60;99.90;;;;;;5075957;28;20294;-78
2023/01/19 05:29:19;;;;;;;48.75;24.15;;;3.60;99.90;;;;;;5074231;28;20021;-75
2023/01/19 05:31:45;;;;;;;39.80;21.98;;;3.70;99.90;;;;;;5073788;28;20027;-75
2023/01/19 05:34:11;;;;;;;35.03;22.08;;;3.70;99.90;;;;;;5074177;28;20031;-72
2023/01/19 05:36:37;;;;;;;37.85;22.08;;;3.70;99.90;;;;;;5073349;28;20442;-74
2023/01/19 05:39:03;;;;;;;44.67;23.10;;;3.60;99.90;;;;;;5074043;28;20029;-74
2023/01/19 05:41:29;;;;;;;35.28;22.23;;;3.70;99.90;;;;;;5073687;28;20027;-72
2023/01/19 05:43:54;;;;;;;39.28;23.98;;;3.70;99.90;;;;;;5074041;28;20029;-78
2023/01/19 05:46:20;;;;;;;39.67;23.60;;;3.70;99.90;;;;;;5073372;28;20037;-76
2023/01/19 05:48:45;;;;;;;40.25;23.83;;;3.70;99.90;;;;;;5075510;28;20024;-73
2023/01/19 05:51:11;;;;;;;40.30;22.92;;;3.70;99.90;;;;;;5075149;28;20024;-76
2023/01/19 05:53:36;;;;;;;39.58;21.92;;;3.70;99.90;;;;;;5075109;28;20043;-73
2023/01/19 05:56:04;;;;;;;40.33;22.83;;;3.70;99.90;;;;;;5072871;28;20051;-74
2023/01/19 05:58:30;;;;;;;39.70;23.48;;;3.70;99.90;;;;;;5073541;28;20023;-72
2023/01/19 06:00:56;;;;;;;39.95;25.00;;;3.70;99.90;;;;;;5073115;28;20020;-74
2023/01/19 06:03:22;;;;;;;39.65;23.50;;;3.70;99.90;;;;;;5073191;28;20024;-74
2023/01/19 06:05:47;;;;;;;40.05;23.83;;;3.70;99.90;;;;;;5072379;28;20031;-73
2023/01/19 06:08:13;;;;;;;40.92;23.58;;;3.60;99.90;;;;;;5072352;28;20044;-75
2023/01/19 06:10:38;;;;;;;38.47;25.00;;;3.60;99.90;;;;;;5072677;28;20482;-75
2023/01/19 06:13:04;;;;;;;41.38;23.95;;;3.60;99.90;;;;;;5072884;28;20024;-74
2023/01/19 06:15:30;;;;;;;43.17;25.38;;;3.60;99.90;;;;;;5072236;28;20028;-73
2023/01/19 06:17:55;;;;;;;45.75;25.83;;;3.70;99.90;;;;;;5072633;28;20025;-72
2023/01/19 06:20:21;;;;;;;45.47;25.70;;;3.60;99.90;;;;;;5053869;28;20024;-79
2023/01/19 06:22:46;;;;;;;46.45;27.77;;;3.50;99.90;;;;;;5072591;28;20109;-72
2023/01/19 06:25:12;;;;;;;41.22;25.67;;;3.50;99.90;;;;;;5072620;28;20071;-72
2023/01/19 06:27:41;;;;;;;51.05;27.42;;;3.50;99.90;;;;;;5071896;28;20417;-74
2023/01/19 06:30:07;;;;;;;39.65;24.83;;;3.50;99.90;;;;;;5072681;28;20385;-75
2023/01/19 06:32:33;;;;;;;47.63;25.85;;;3.60;99.90;;;;;;5067416;28;20024;-74
2023/01/19 06:34:59;;;;;;;48.20;25.92;;;3.50;99.90;;;;;;5072307;28;20428;-75
2023/01/19 06:37:26;;;;;;;43.92;26.13;;;3.60;99.90;;;;;;5071688;28;20032;-74
2023/01/19 06:39:51;;;;;;;44.15;25.38;;;3.60;99.90;;;;;;5073391;28;20021;-75
2023/01/19 06:42:17;;;;;;;42.13;26.33;;;3.60;99.90;;;;;;5046252;28;20037;-73
2023/01/19 06:44:46;;;;;;;42.83;24.73;;;3.60;99.90;;;;;;5065673;28;20024;-74
2023/01/19 06:47:12;;;;;;;40.53;25.15;;;3.60;99.90;;;;;;5071382;28;20048;-76
2023/01/19 06:49:37;;;;;;;42.03;24.02;;;3.60;99.90;;;;;;5072435;28;20060;-73
2023/01/19 06:52:03;;;;;;;40.58;24.63;;;3.60;99.90;;;;;;5071923;28;20021;-75
2023/01/19 06:54:29;;;;;;;36.92;23.90;;;3.80;99.90;;;;;;5054233;28;20381;-75
2023/01/19 06:56:54;;;;;;;41.65;25.63;;;3.70;99.90;;;;;;5072330;28;20020;-75
2023/01/19 06:59:20;;;;;;;42.17;24.58;;;3.70;99.90;;;;;;5071900;28;20183;-75
2023/01/19 07:01:45;;;;;;;38.53;24.48;;;3.70;99.90;;;;;;5072077;28;20024;-73
2023/01/19 07:04:13;;;;;;;37.25;23.73;;;3.60;99.90;;;;;;5053572;28;20031;-74
2023/01/19 07:06:38;;;;;;;42.75;25.25;;;3.60;99.90;;;;;;5071323;28;20138;-74
2023/01/19 07:09:06;;;;;;;41.95;26.30;;;3.60;99.90;;;;;;5071712;28;20107;-73
2023/01/19 07:11:32;;;;;;;39.90;25.70;;;3.60;99.90;;;;;;5062968;28;20020;-75
2023/01/19 07:13:58;;;;;;;43.30;27.08;;;3.50;99.90;;;;;;5071868;28;20059;-76
2023/01/19 07:16:24;;;;;;;43.15;27.10;;;3.50;99.90;;;;;;5071735;28;20478;-74
2023/01/19 07:18:49;;;;;;;39.00;26.55;;;3.60;99.90;;;;;;5071636;28;20024;-72
2023/01/19 07:21:15;;;;;;;41.45;26.60;;;3.50;99.90;;;;;;5071451;28;20047;-72
2023/01/19 07:23:42;;;;;;;43.45;27.15;;;3.50;99.90;;;;;;5075107;28;20074;-81
2023/01/19 07:26:09;;;;;;;46.25;27.35;;;3.60;99.90;;;;;;5073048;28;20074;-74
2023/01/19 07:28:35;;;;;;;50.05;28.42;;;3.60;99.90;;;;;;5071792;28;20037;-74
2023/01/19 07:31:01;;;;;;;47.20;27.98;;;3.60;99.90;;;;;;5071323;28;20572;-75
2023/01/19 07:33:27;;;;;;;43.70;27.70;;;3.50;99.90;;;;;;5071885;28;20415;-76
2023/01/19 07:35:53;;;;;;;45.70;27.83;;;3.60;99.90;;;;;;5071265;28;20257;-74
2023/01/19 07:38:19;;;;;;;44.80;28.88;;;3.60;99.90;;;;;;5071891;28;20485;-76
2023/01/19 07:40:47;;;;;;;42.75;27.23;;;3.70;99.90;;;;;;5072091;28;20559;-76
2023/01/19 07:43:14;;;;;;;46.97;28.27;;;3.70;99.90;;;;;;5071964;28;20020;-77
2023/01/19 07:45:39;;;;;;;42.83;28.10;;;3.70;99.90;;;;;;5075471;28;20040;-78
2023/01/19 07:48:05;;;;;;;44.63;26.42;;;3.70;99.90;;;;;;5071826;28;20421;-73
2023/01/19 07:50:31;;;;;;;47.53;29.25;;;3.70;99.90;;;;;;5071374;28;20042;-72
2023/01/19 07:52:56;;;;;;;44.33;28.33;;;3.70;99.90;;;;;;5071225;28;20078;-70
2023/01/19 07:55:23;;;;;;;45.53;29.23;;;3.60;99.90;;;;;;5070945;28;20024;-70
2023/01/19 07:57:49;;;;;;;51.72;30.80;;;3.70;99.90;;;;;;5071304;28;20050;-70
2023/01/19 08:00:19;;;;;;;46.33;29.52;;;3.70;99.90;;;;;;5071258;28;20052;-70
2023/01/19 08:02:44;;;;;;;51.83;30.58;;;3.70;99.90;;;;;;5071771;28;20086;-71
2023/01/19 08:05:10;;;;;;;46.55;29.90;;;3.70;99.90;;;;;;5072141;28;20029;-77
2023/01/19 08:07:36;;;;;;;49.35;31.17;;;3.70;99.90;;;;;;5073420;28;20030;-73
2023/01/19 08:10:01;;;;;;;47.33;29.42;;;3.70;99.90;;;;;;5071897;28;20032;-77
2023/01/19 08:12:27;;;;;;;50.90;31.48;;;3.80;99.90;;;;;;5072224;28;20016;-76
2023/01/19 08:14:52;;;;;;;49.95;30.25;;;3.80;99.90;;;;;;5073748;28;20029;-72
2023/01/19 08:17:18;;;;;;;52.22;31.35;;;3.80;99.90;;;;;;5070885;28;20025;-73
2023/01/19 08:19:43;;;;;;;52.97;31.80;;;3.80;99.90;;;;;;5071353;28;20020;-73
2023/01/19 08:22:09;;;;;;;54.25;29.90;;;3.80;99.90;;;;;;5071189;28;20389;-73
2023/01/19 08:24:35;;;;;;;47.30;30.60;;;3.80;99.90;;;;;;5071390;28;20025;-71
2023/01/19 08:27:02;;;;;;;51.72;31.25;;;3.70;99.90;;;;;;5070479;28;20024;-74
2023/01/19 08:29:32;;;;;;;50.20;30.20;;;3.80;99.90;;;;;;5070873;28;20029;-73
2023/01/19 08:32:00;;;;;;;52.28;31.58;;;3.70;99.90;;;;;;5070697;28;20104;-72
2023/01/19 08:34:26;;;;;;;53.63;31.52;;;3.70;99.90;;;;;;5071199;28;20066;-72
2023/01/19 08:36:51;;;;;;;54.40;31.23;;;3.70;99.90;;;;;;5070628;28;20021;-73
2023/01/19 08:39:17;;;;;;;52.47;30.23;;;3.70;99.90;;;;;;5071118;28;20029;-72
2023/01/19 08:41:43;;;;;;;46.45;28.95;;;3.80;99.90;;;;;;5071235;28;20060;-73
2023/01/19 08:44:09;;;;;;;46.63;29.48;;;3.80;99.90;;;;;;5072850;28;20035;-72
2023/01/19 08:46:34;;;;;;;49.20;30.15;;;3.90;99.90;;;;;;5073894;28;20119;-71
2023/01/19 08:49:00;;;;;;;50.60;29.13;;;3.90;99.90;;;;;;5074898;28;20025;-72
2023/01/19 08:51:25;;;;;;;48.20;27.60;;;3.90;99.90;;;;;;5074851;28;20371;-74
2023/01/19 08:53:51;;;;;;;51.67;28.55;;;3.90;99.90;;;;;;5074559;28;20024;-75
2023/01/19 08:56:16;;;;;;;47.88;27.85;;;3.90;99.90;;;;;;5056149;28;20492;-74
2023/01/19 08:58:43;;;;;;;50.80;27.90;;;4.00;99.90;;;;;;5074465;28;20059;-74
2023/01/19 09:01:20;;;;;;;49.80;27.92;;;3.90;99.90;;;;;;5074402;28;20078;-74
2023/01/19 09:03:46;;;;;;;45.20;27.75;;;3.90;99.90;;;;;;5071109;28;20027;-72
2023/01/19 09:06:15;;;;;;;46.50;27.60;;;3.90;99.90;;;;;;5055826;28;20024;-73
2023/01/19 09:08:41;;;;;;;46.60;28.13;;;3.90;99.90;;;;;;5074199;28;20020;-73
2023/01/19 09:11:11;;;;;;;46.72;28.00;;;4.00;99.90;;;;;;5074210;28;20104;-73
2023/01/19 09:13:38;;;;;;;47.47;28.15;;;4.00;99.90;;;;;;5074193;28;20107;-72
2023/01/19 09:16:06;;;;;;;48.35;27.52;;;4.00;99.90;;;;;;5073687;28;20013;-72
2023/01/19 09:18:32;;;;;;;49.47;27.60;;;3.90;99.90;;;;;;5074472;28;20104;-72
2023/01/19 09:20:58;;;;;;;46.05;28.52;;;3.90;99.90;;;;;;5073886;28;20033;-71
2023/01/19 09:23:24;;;;;;;43.15;27.20;;;3.90;99.90;;;;;;5073991;28;20027;-72
2023/01/19 09:25:55;;;;;;;47.22;28.83;;;3.90;99.90;;;;;;5073266;28;20389;-72
2023/01/19 09:28:21;;;;;;;53.72;29.27;;;3.90;99.90;;;;;;5073613;28;20161;-72
2023/01/19 09:30:47;;;;;;;47.55;27.95;;;4.00;99.90;;;;;;5073855;28;20025;-71
2023/01/19 09:33:15;;;;;;;49.92;28.73;;;4.00;99.90;;;;;;5073601;28;20013;-72
2023/01/19 09:35:42;;;;;;;49.70;27.88;;;4.00;99.90;;;;;;5073078;28;20112;-73
2023/01/19 09:38:08;;;;;;;46.95;28.58;;;4.10;99.90;;;;;;5073664;28;20039;-73
2023/01/19 09:40:42;;;;;;;47.08;27.40;;;4.10;99.90;;;;;;5073859;28;20028;-72
2023/01/19 09:43:20;;;;;;;44.20;27.08;;;4.20;99.90;;;;;;5074040;28;20385;-71
2023/01/19 09:45:55;;;;;;;51.05;28.40;;;4.20;99.90;;;;;;5072900;28;20040;-72
2023/01/19 09:48:45;;;;;;;49.45;28.10;;;4.20;99.90;;;;;;5071807;28;20063;-72
2023/01/19 09:51:27;;;;;;;46.20;27.35;;;4.30;99.90;;;;;;5073529;28;20096;-72
2023/01/19 09:53:59;;;;;;;49.58;27.70;;;4.30;99.90;;;;;;5073381;28;20436;-72
2023/01/19 09:56:26;;;;;;;50.50;30.27;;;4.30;99.90;;;;;;5072501;28;20095;-72
2023/01/19 09:58:52;;;;;;;46.50;28.27;;;4.30;99.90;;;;;;5072836;28;20025;-71
2023/01/19 10:01:45;;;;;;;50.40;28.63;;;4.30;99.90;;;;;;5073395;28;20389;-72
2023/01/19 10:04:39;;;;;;;42.45;27.63;;;4.30;99.90;;;;;;5073404;28;20067;-72
2023/01/19 10:07:13;;;;;;;52.90;29.20;;;4.30;99.90;;;;;;5072298;28;20097;-72
2023/01/19 10:09:59;;;;;;;48.13;27.15;;;4.40;99.90;;;;;;5072700;28;20492;-72
2023/01/19 10:12:40;;;;;;;42.78;27.88;;;4.40;99.90;;;;;;5054592;28;20021;-72
2023/01/19 10:15:30;;;;;;;47.00;27.60;;;4.40;99.90;;;;;;5073339;28;20016;-72
2023/01/19 10:18:25;;;;;;;40.75;26.60;;;4.40;99.90;;;;;;5073057;28;20500;-71
2023/01/19 10:20:58;;;;;;;42.13;26.30;;;4.50;99.90;;;;;;5073343;28;20502;-75
2023/01/19 10:23:30;;;;;;;45.10;25.85;;;4.60;99.90;;;;;;5073563;28;20142;-72
2023/01/19 10:25:59;;;;;;;39.60;23.67;;;4.70;99.90;;;;;;5072664;28;20028;-73
2023/01/19 10:28:26;;;;;;;40.90;25.45;;;4.70;99.60;;;;;;5072780;28;20039;-74
2023/01/19 10:30:53;;;;;;;43.97;26.13;;;4.70;99.90;;;;;;5072960;28;20443;-74
2023/01/19 10:33:19;;;;;;;42.38;25.73;;;4.70;99.90;;;;;;5072897;28;20054;-71
2023/01/19 10:35:47;;;;;;;44.75;25.40;;;4.70;98.80;;;;;;5072029;28;20446;-72
2023/01/19 10:38:14;;;;;;;37.85;24.75;;;4.70;99.90;;;;;;5073155;28;20158;-76
2023/01/19 10:40:59;;;;;;;46.03;24.40;;;4.70;99.50;;;;;;5072460;28;20114;-71
2023/01/19 10:43:34;;;;;;;38.53;24.48;;;4.70;99.00;;;;;;5072708;28;20374;-74
2023/01/19 10:46:20;;;;;;;37.40;24.38;;;4.70;99.30;;;;;;5071881;28;20504;-73
2023/01/19 10:48:49;;;;;;;42.53;25.58;;;4.70;99.10;;;;;;5072627;28;20060;-72
2023/01/19 10:51:15;;;;;;;37.70;24.75;;;4.80;99.10;;;;;;5072593;28;20031;-71
2023/01/19 10:53:54;;;;;;;40.90;25.33;;;4.70;99.00;;;;;;5072989;28;20020;-71
2023/01/19 10:56:23;;;;;;;39.03;24.05;;;4.70;99.20;;;;;;5072269;28;20103;-73
2023/01/19 10:58:49;;;;;;;41.05;25.65;;;4.70;99.90;;;;;;5072600;28;20355;-72
2023/01/19 11:01:18;;;;;;;39.50;22.83;;;4.80;98.50;;;;;;5072250;28;20029;-72
2023/01/19 11:03:44;;;;;;;36.17;23.70;;;4.90;98.10;;;;;;5072150;28;20028;-70
2023/01/19 11:06:12;;;;;;;37.00;24.13;;;4.80;97.50;;;;;;5070868;28;20021;-71
2023/01/19 11:08:38;;;;;;;40.13;24.13;;;4.80;97.90;;;;;;5071933;28;20496;-72
2023/01/19 11:11:07;;;;;;;42.28;24.05;;;4.70;99.50;;;;;;5072053;28;20029;-72
2023/01/19 11:13:34;;;;;;;38.72;24.35;;;4.70;99.90;;;;;;5072159;28;20423;-72
2023/01/19 11:16:24;;;;;;;39.60;24.95;;;4.70;99.20;;;;;;5071414;28;20089;-72
2023/01/19 11:18:55;;;;;;;37.20;24.40;;;4.60;99.90;;;;;;5072097;28;20029;-73
2023/01/19 11:21:25;;;;;;;43.13;24.85;;;4.60;99.90;;;;;;5072271;28;20024;-75
2023/01/19 11:23:54;;;;;;;39.72;23.92;;;4.60;99.90;;;;;;5072108;28;20013;-72
2023/01/19 11:26:56;;;;;;;43.00;24.67;;;4.60;99.90;;;;;;5071532;28;20021;-73
2023/01/19 11:29:24;;;;;;;42.42;24.00;;;4.60;99.90;;;;;;5072394;28;20491;-73
2023/01/19 11:31:51;;;;;;;40.60;25.50;;;4.90;99.90;;;;;;5071905;28;20028;-71
2023/01/19 11:34:30;;;;;;;39.70;24.25;;;4.60;99.90;;;;;;5071985;28;20043;-70
2023/01/19 11:37:18;;;;;;;41.45;24.52;;;4.60;99.90;;;;;;5071443;28;20104;-71
2023/01/19 11:39:47;;;;;;;43.67;24.33;;;4.70;99.90;;;;;;5071303;28;20028;-73
2023/01/19 11:42:14;;;;;;;40.03;24.50;;;4.60;99.90;;;;;;5071751;28;20445;-72
2023/01/19 11:44:57;;;;;;;42.80;24.23;;;4.60;99.90;;;;;;5071675;28;20029;-72
2023/01/19 11:47:24;;;;;;;38.50;24.42;;;4.60;99.90;;;;;;5070999;28;20036;-71
2023/01/19 11:50:01;;;;;;;40.58;25.27;;;4.60;99.90;;;;;;5071295;28;20032;-72
2023/01/19 11:52:41;;;;;;;38.72;24.70;;;4.60;99.90;;;;;;5071583;28;20029;-72
2023/01/19 11:55:35;;;;;;;46.67;24.27;;;4.60;99.90;;;;;;5071498;28;20470;-72
2023/01/19 11:58:02;;;;;;;41.65;24.13;;;4.70;99.90;;;;;;5071638;28;20028;-72
2023/01/19 12:00:41;;;;;;;45.85;24.20;;;4.70;99.90;;;;;;5071458;28;20104;-73
2023/01/19 12:03:33;;;;;;;46.45;23.88;;;4.80;99.90;;;;;;5071867;28;20103;-73
2023/01/19 12:06:04;;;;;;;39.55;24.42;;;4.80;99.90;;;;;;5070715;28;20032;-73
2023/01/19 12:08:38;;;;;;;50.03;25.58;;;4.80;99.90;;;;;;5070977;28;20405;-75
2023/01/19 12:11:06;;;;;;;42.92;25.05;;;4.80;99.90;;;;;;5071012;28;20443;-73
2023/01/19 12:13:34;;;;;;;64.85;32.55;;;4.90;99.90;;;;;;5071132;28;20390;-74
2023/01/19 12:16:04;;;;;;;42.35;23.40;;;4.80;99.90;;;;;;5070436;28;20406;-73
2023/01/19 12:18:38;;;;;;;46.15;24.65;;;4.80;99.90;;;;;;5072533;28;20056;-73
2023/01/19 12:21:04;;;;;;;50.03;26.38;;;4.80;99.90;;;;;;5075265;28;20493;-73
2023/01/19 12:23:49;;;;;;;39.38;24.08;;;4.80;99.90;;;;;;5075110;28;20032;-74
2023/01/19 12:26:15;;;;;;;36.40;22.25;;;4.80;99.90;;;;;;5074334;28;20039;-72
2023/01/19 12:28:45;;;;;;;42.25;24.67;;;4.90;99.90;;;;;;5075828;28;20111;-73
2023/01/19 12:31:15;;;;;;;44.08;25.50;;;4.80;99.90;;;;;;5075017;28;20044;-74
2023/01/19 12:33:41;;;;;;;41.72;23.85;;;4.80;99.90;;;;;;5075027;28;20031;-74
2023/01/19 12:36:15;;;;;;;51.22;24.38;;;4.80;99.90;;;;;;5074340;28;20025;-71
2023/01/19 12:38:44;;;;;;;41.65;24.05;;;4.80;99.90;;;;;;5075305;28;20504;-73
2023/01/19 12:41:31;;;;;;;41.03;23.42;;;4.90;99.90;;;;;;5075447;28;20038;-72
2023/01/19 12:44:18;;;;;;;42.53;24.15;;;4.90;99.90;;;;;;5075360;28;20078;-73
2023/01/19 12:47:06;;;;;;;38.85;22.95;;;5.00;99.90;;;;;;5074154;28;20422;-75
2023/01/19 12:49:45;;;;;;;37.38;22.05;;;5.00;99.90;;;;;;5075006;28;20021;-73
2023/01/19 12:52:33;;;;;;;43.92;21.80;;;5.00;99.90;;;;;;5074363;28;20020;-72
2023/01/19 12:55:12;;;;;;;37.58;23.00;;;5.00;99.90;;;;;;5074603;28;20426;-72
2023/01/19 12:57:58;;;;;;;39.90;22.70;;;5.00;99.90;;;;;;5074022;28;20382;-72
2023/01/19 13:00:24;;;;;;;36.55;22.33;;;5.10;99.90;;;;;;5074610;28;20044;-73